Airfield :
LOGIN :

Register | Disclaimer

   EN    FR    IT 

 










Legend :    VFR   Marginal VFR   IFR   Intensive IFR   Very Intensive IFR
Visi :
Ceiling :
>= 8 km
>= 3000ft
5 to 8 km
1000 to 3000 ft
1500m to 5 km
500 to 1000 ft
800 to 1500m
200 to 500 ft
< 800m
< 200 ft
Symbols :   Thunderstorms  Fog  Heavy snow  Heavy precipitations  Wind > 20 kt
SIGMETs :     Misc.  Thunderstorms  Icing  Turbulence  Mountain Waves  Volcanic Ashes







- Airport Elevation : 55 ft
- Download approach charts


EGNO - Warton Preston

CURRENT METAR :
  • 240950Z 25007KT 9000 BKN007 15/13 Q1026

EXPIRED METARs :
  • 240920Z 27006KT 9000 BKN007 15/13 Q1026
  • 240850Z 26007KT 9000 BKN007 14/13 Q1026
  • 240820Z 28006KT 250V310 9000 BKN007 15/13 Q1026
  • 240750Z 28007KT 9000 BKN007 15/13 Q1026
  • 240720Z 29007KT 9000 SCT007 BKN015 15/13 Q1025

TAF TAF EGNO
Valid from the 24 at 09:00 until the 24 at 18:00 UTC


240759Z 2409/2418 26009KT 9999 FEW030
PROB40
TEMPO 2409/2410 8000 BKN008
ATIS : +44 1772 856 060
No reported NOTAMs for that airfield.



MET'MAP, your aeronautical weather chart ! - Copyright ORBIFLY December 2007 - Disclaimer

ORBIFLY MET'MAP TEAM :

Programming & Development : Alexandra Zaïnal
Concept & Development : Baudouin d'Aumeries
Co-Development & Prog : Marc-Olivier Méhu
Technical & hardware support : Manuel Goepfert

Contact : metmap@orbifly.com




SOURCES & CREDITS :

   NOAA